Gonzales, TX (78629)

11:53 PM CDT on July 07, 2015 (GMT -0500)
APRSWXNET | | Change Station
CLOSE
Current Station
Personal Weather Station
Location: Gonzales, TX
Elevation: 308 ft
Nearby Weather Stations

Elev 308 ft 29.49 °N, 97.36 °W | Updated 35 minutes ago

Overcast
Overcast
79 °F
Feels Like 83 °F
N
2
Wind Variable Wind from ESE
Gusts 6.0 mph

Today
High -- | Low -- °F
--% Chance of Precip.
Yesterday
High -- | Low -- °F
Precip. -- in
6:35 AM 8:33 PM
Waning Gibbous, 57% visible
Pressure 30.00 in
Visibility 7.0 miles
Clouds Overcast 1700 ft
Heat Index 83 °F
Dew Point 76 °F
Humidity 92%
Rainfall in
Snow Depth Not available.
UV 0 out of 12
Pollen 4.00 out of 12
Air Quality Not available.
Flu Activity Not available.
METAR KT20 080435Z AUTO 15009KT 7SM OVC017 27/26 A3000 RMK AO2 T02670255

More Conditions Fewer Conditions

Pressure 30.00 in
Visibility 7.0 miles
Clouds Overcast 1700 ft
Heat Index 83 °F
Dew Point 76 °F
Humidity 92%
Rainfall in
Snow Depth Not available.
UV 0 out of 12
Pollen 4.00 out of 12
Air Quality Not available.
Flu Activity Not available.
METAR KT20 080435Z AUTO 15009KT 7SM OVC017 27/26 A3000 RMK AO2 T02670255

More Conditions Fewer Conditions

10-Day Weather Forecast

×

Almanac

Astronomy

Jul. 07, 2015 Rise Set
Actual Time
Civil Twilight
Nautical Twilight
Astronomical Twilight
Moon
Length of Visible Light
Length of Day
Tomorrow will be .
, % of the Moon is Illuminated

Today's Extremes

State Highs State Lows

Community

WunderPhotos

Upload Photos

1,836,057 photos uploaded!

WunderBlogs® & News

Nearby

Air Quality

  Air Quality AQ Index Pollutant
Not available.

Snow Depth

Station Depth Elevation

Earthquake Activity

City Distance Mag. Time & Date
Minimum magnitude displayed is 2.5.

Coastal Water Temperatures

Place Temperature

Stations

Nearby Weather Stations

Station Location Temp. Windchill Dew Point Humidity Wind Precip. Elev Updated Type